Time;durP1;ratioP1;P1;durP2;ratioP2;P2;SDS_P1;SDS_P2;PMS_P1;PMS_P2;Temp;Humidity;BMP_temperature;BMP_pressure;BME280_temperature;BME280_humidity;BME280_pressure;Samples;Min_cycle;Max_cycle;Signal;HPM_P1;HPM_P2
2023/10/27 00:01:49;;;;;;;6.40;4.35;;;;;;;24.26;45.11;97891.41;4467541;32;33008;-62
2023/10/27 00:04:16;;;;;;;9.27;4.90;;;;;;;24.25;45.15;97884.34;4467164;32;33972;-62
2023/10/27 00:06:44;;;;;;;6.97;4.43;;;;;;;24.26;45.13;97883.25;4467033;32;34507;-62
2023/10/27 00:09:11;;;;;;;7.62;4.50;;;;;;;24.26;45.10;97879.72;4468302;32;33265;-62
2023/10/27 00:11:39;;;;;;;8.60;5.28;;;;;;;24.26;45.10;97874.25;4468334;32;33856;-62
2023/10/27 00:14:06;;;;;;;7.15;4.60;;;;;;;24.26;44.97;97875.06;4468117;32;34806;-62
2023/10/27 00:16:34;;;;;;;7.93;4.43;;;;;;;24.25;45.03;97868.00;4468403;32;34450;-62
2023/10/27 00:19:02;;;;;;;8.80;4.35;;;;;;;24.26;45.03;97874.25;4468361;32;33752;-62
2023/10/27 00:21:29;;;;;;;8.73;4.65;;;;;;;24.25;45.01;97870.72;4468397;32;33933;-62
2023/10/27 00:23:57;;;;;;;7.05;4.57;;;;;;;24.25;45.03;97869.88;4468214;32;34819;-62
2023/10/27 00:26:25;;;;;;;8.70;4.45;;;;;;;24.24;45.02;97865.53;4468288;32;34181;-62
2023/10/27 00:28:53;;;;;;;6.85;4.78;;;;;;;24.24;45.05;97863.62;4468000;32;34377;-62
2023/10/27 00:31:21;;;;;;;6.80;3.95;;;;;;;24.25;44.98;97858.97;4474150;32;33971;-62
2023/10/27 00:33:48;;;;;;;7.68;4.70;;;;;;;24.25;45.01;97856.25;4483818;32;34061;-62
2023/10/27 00:36:17;;;;;;;6.75;4.37;;;;;;;24.23;44.99;97858.47;4483643;32;34768;-62
2023/10/27 00:38:47;;;;;;;7.68;4.68;;;;;;;24.23;44.98;97861.19;4483769;32;33782;-62
2023/10/27 00:41:16;;;;;;;8.10;4.28;;;;;;;24.23;44.98;97862.00;4483625;32;33649;-62
2023/10/27 00:43:43;;;;;;;8.32;4.53;;;;;;;24.23;44.90;97869.34;4483659;32;34748;-62
2023/10/27 00:46:10;;;;;;;8.68;4.75;;;;;;;24.23;44.89;97858.47;4483635;32;34918;-62
2023/10/27 00:48:38;;;;;;;8.45;4.60;;;;;;;24.22;44.92;97867.72;4482353;32;33576;-62
2023/10/27 00:51:06;;;;;;;7.60;4.35;;;;;;;24.23;44.91;97858.47;4484124;32;33632;-62
2023/10/27 00:53:34;;;;;;;7.53;4.40;;;;;;;24.23;44.92;97858.47;4497421;31;33828;-62
2023/10/27 00:56:02;;;;;;;6.53;4.35;;;;;;;24.22;44.91;97859.56;4484109;32;34041;-62
2023/10/27 00:58:30;;;;;;;6.68;4.68;;;;;;;24.22;44.91;97856.84;4484332;32;34318;-62
2023/10/27 01:01:01;;;;;;;7.13;4.30;;;;;;;24.22;44.97;97856.84;4484334;32;34556;-62
2023/10/27 01:03:30;;;;;;;7.75;4.37;;;;;;;24.21;44.98;97861.47;4483991;32;34140;-62
2023/10/27 01:05:57;;;;;;;6.25;4.30;;;;;;;24.21;45.00;97864.19;4485424;32;34073;-62
2023/10/27 01:08:25;;;;;;;6.20;4.22;;;;;;;24.20;45.12;97862.53;4485370;32;33751;-62
2023/10/27 01:10:53;;;;;;;7.68;4.30;;;;;;;24.20;45.14;97862.53;4485308;32;33537;-62
2023/10/27 01:13:23;;;;;;;6.78;4.05;;;;;;;24.20;45.05;97859.81;4485403;32;33993;-62
2023/10/27 01:15:51;;;;;;;7.03;4.50;;;;;;;24.20;45.07;97857.09;4485376;32;34807;-62
2023/10/27 01:18:19;;;;;;;8.50;4.37;;;;;;;24.20;45.09;97857.09;4485328;32;33625;-62
2023/10/27 01:20:47;;;;;;;5.82;3.85;;;;;;;24.20;45.08;97851.63;4485249;32;33634;-62
2023/10/27 01:23:15;;;;;;;8.10;4.30;;;;;;;24.19;45.06;97842.66;4485624;32;34784;-62
2023/10/27 01:25:43;;;;;;;6.85;4.20;;;;;;;24.19;45.00;97839.13;4485107;32;34721;-62
2023/10/27 01:28:10;;;;;;;6.55;4.47;;;;;;;24.19;45.03;97845.38;4485313;32;34293;-62
2023/10/27 01:30:38;;;;;;;7.50;4.47;;;;;;;24.19;45.18;97839.94;4485078;32;34045;-62
2023/10/27 01:33:06;;;;;;;8.98;4.37;;;;;;;24.19;45.19;97833.66;4485163;32;34052;-62
2023/10/27 01:35:35;;;;;;;6.95;4.40;;;;;;;24.19;45.16;97831.75;4485179;32;34160;-62
2023/10/27 01:38:02;;;;;;;6.60;4.32;;;;;;;24.20;45.16;97829.84;4485226;32;33220;-63
2023/10/27 01:40:30;;;;;;;7.43;4.37;;;;;;;24.21;45.14;97826.03;4485304;32;33764;-62
2023/10/27 01:42:57;;;;;;;5.78;3.90;;;;;;;24.19;45.14;97823.56;4485159;32;34742;-63
2023/10/27 01:45:25;;;;;;;7.07;4.40;;;;;;;24.21;45.16;97825.22;4485131;32;33741;-62
2023/10/27 01:47:53;;;;;;;5.93;3.90;;;;;;;24.20;45.17;97818.94;4485350;32;33397;-62
2023/10/27 01:50:20;;;;;;;5.85;4.00;;;;;;;24.19;45.21;97807.22;4483626;32;33912;-62
2023/10/27 01:52:48;;;;;;;6.78;4.22;;;;;;;24.20;45.19;97808.03;4485313;32;34646;-62
2023/10/27 01:55:16;;;;;;;6.53;3.75;;;;;;;24.20;45.21;97805.31;4485103;32;34767;-62
2023/10/27 01:57:43;;;;;;;6.07;3.97;;;;;;;24.21;45.23;97803.44;4484896;32;33636;-62
2023/10/27 02:00:12;;;;;;;6.53;3.75;;;;;;;24.19;45.23;97801.78;4484496;32;33865;-62
2023/10/27 02:02:40;;;;;;;7.12;4.35;;;;;;;24.20;45.27;97799.88;4485309;32;33914;-62
2023/10/27 02:05:08;;;;;;;6.35;3.97;;;;;;;24.21;45.23;97800.72;4484975;32;34920;-62
2023/10/27 02:07:36;;;;;;;6.65;3.62;;;;;;;24.19;45.28;97790.87;4484824;32;33570;-62
2023/10/27 02:10:04;;;;;;;7.53;4.30;;;;;;;24.20;45.21;97780.78;4484919;32;34130;-62
2023/10/27 02:12:32;;;;;;;8.07;4.05;;;;;;;24.21;45.23;97781.63;4484955;32;33706;-62
2023/10/27 02:14:59;;;;;;;6.40;4.15;;;;;;;24.21;45.17;97792.53;4484796;32;34653;-62
2023/10/27 02:17:27;;;;;;;7.07;4.55;;;;;;;24.21;45.16;97781.63;4484940;32;34412;-62
2023/10/27 02:19:55;;;;;;;7.70;4.35;;;;;;;24.20;45.15;97780.78;4485025;32;34629;-62
2023/10/27 02:22:23;;;;;;;6.03;4.12;;;;;;;24.19;45.03;97773.72;4484615;32;34728;-63
2023/10/27 02:24:51;;;;;;;6.20;4.12;;;;;;;24.19;44.99;97769.06;4484660;32;35362;-62
2023/10/27 02:27:18;;;;;;;7.12;4.00;;;;;;;24.19;45.10;97768.25;4484885;32;34165;-62
2023/10/27 02:29:46;;;;;;;6.70;4.15;;;;;;;24.18;45.14;97767.44;4484730;32;34267;-62
2023/10/27 02:32:14;;;;;;;5.37;3.22;;;;;;;24.18;45.14;97772.91;4484754;32;33690;-62
2023/10/27 02:34:41;;;;;;;11.95;4.43;;;;;;;24.18;45.11;97761.19;4484874;32;33734;-62
2023/10/27 02:37:09;;;;;;;8.30;4.28;;;;;;;24.17;45.15;97765.03;4484580;32;33386;-62
2023/10/27 02:39:39;;;;;;;5.82;3.92;;;;;;;24.18;45.11;97761.19;4484979;32;33831;-62
2023/10/27 02:42:07;;;;;;;6.87;4.00;;;;;;;24.16;45.06;97761.47;4484687;32;33889;-62
2023/10/27 02:44:34;;;;;;;6.60;3.75;;;;;;;24.16;45.05;97758.75;4484565;32;34725;-62
2023/10/27 02:47:02;;;;;;;9.05;4.10;;;;;;;24.16;45.06;97747.84;4484737;32;33560;-62
2023/10/27 02:49:30;;;;;;;6.28;3.75;;;;;;;24.17;45.05;97748.66;4484701;32;34645;-61
2023/10/27 02:51:57;;;;;;;5.82;3.28;;;;;;;24.17;45.09;97754.13;4484398;32;33505;-62
2023/10/27 02:54:25;;;;;;;6.65;3.83;;;;;;;24.17;45.09;97748.66;4484651;32;35037;-62
2023/10/27 02:56:52;;;;;;;6.10;3.62;;;;;;;24.17;45.07;97745.94;4484760;32;33498;-62
2023/10/27 02:59:20;;;;;;;5.43;3.65;;;;;;;24.16;45.10;97739.69;4484559;32;34832;-62
2023/10/27 03:01:47;;;;;;;9.60;4.22;;;;;;;24.18;45.13;97739.41;4484552;32;34154;-62
2023/10/27 03:04:15;;;;;;;6.28;3.53;;;;;;;24.16;45.18;97734.22;4484639;32;34092;-62
2023/10/27 03:06:44;;;;;;;6.60;3.97;;;;;;;24.17;45.19;97729.59;4484421;32;33585;-62
2023/10/27 03:09:11;;;;;;;6.43;3.97;;;;;;;24.17;45.19;97726.88;4484546;32;34743;-61
2023/10/27 03:11:39;;;;;;;7.50;3.85;;;;;;;24.16;45.20;97726.06;4483719;32;33898;-62
2023/10/27 03:14:06;;;;;;;6.55;3.55;;;;;;;24.16;45.15;97720.63;4484176;32;34006;-62
2023/10/27 03:16:35;;;;;;;6.35;3.60;;;;;;;24.16;45.15;97714.34;4484569;32;33670;-62
2023/10/27 03:19:02;;;;;;;6.90;4.43;;;;;;;24.16;45.13;97707.00;4484754;32;33914;-62
2023/10/27 03:21:30;;;;;;;6.97;4.18;;;;;;;24.16;45.12;97707.00;4484269;32;33254;-62
2023/10/27 03:23:58;;;;;;;7.95;4.00;;;;;;;24.15;45.19;97702.62;4484517;32;34212;-62
2023/10/27 03:26:25;;;;;;;6.95;3.47;;;;;;;24.15;45.22;97690.91;4484522;32;34286;-62
2023/10/27 03:28:53;;;;;;;5.30;3.80;;;;;;;24.16;45.27;97692.56;4484329;32;33760;-62
2023/10/27 03:31:20;;;;;;;6.90;3.92;;;;;;;24.14;45.22;97690.09;4484347;32;33892;-62
2023/10/27 03:33:48;;;;;;;5.12;3.30;;;;;;;24.14;45.22;97678.38;4484397;32;34201;-62
2023/10/27 03:36:16;;;;;;;5.50;3.62;;;;;;;24.13;45.19;97672.12;4484275;32;33651;-62
2023/10/27 03:38:44;;;;;;;7.60;3.40;;;;;;;24.13;45.22;97677.56;4484672;32;34668;-62
2023/10/27 03:41:12;;;;;;;6.87;3.50;;;;;;;24.14;45.21;97670.19;4484288;32;33988;-62
2023/10/27 03:43:39;;;;;;;6.15;3.92;;;;;;;24.14;45.20;97672.94;4484356;32;33941;-62
2023/10/27 03:46:07;;;;;;;5.68;3.55;;;;;;;24.13;45.21;97658.50;4484380;32;33170;-62
2023/10/27 03:48:35;;;;;;;6.65;3.50;;;;;;;24.13;45.19;97658.50;4482943;32;33937;-62
2023/10/27 03:51:06;;;;;;;7.28;4.28;;;;;;;24.13;45.24;97655.78;4484142;32;33766;-62
2023/10/27 03:53:33;;;;;;;7.03;3.53;;;;;;;24.14;45.31;97651.94;4484235;32;34821;-62
2023/10/27 03:56:01;;;;;;;6.22;3.62;;;;;;;24.14;45.26;97656.59;4484060;32;34382;-62
2023/10/27 03:58:30;;;;;;;7.53;3.37;;;;;;;24.14;45.24;97630.16;4484257;32;33891;-62
2023/10/27 04:01:15;;;;;;;6.85;3.40;;;;;;;24.14;45.29;97634.78;4483880;32;33849;-62
2023/10/27 04:03:43;;;;;;;5.90;3.33;;;;;;;24.16;45.20;97640.78;4483173;31;33725;-62
2023/10/27 04:06:11;;;;;;;7.78;3.60;;;;;;;24.14;45.19;97621.97;4484175;32;33242;-62
2023/10/27 04:08:39;;;;;;;7.18;4.00;;;;;;;24.13;45.28;97609.44;4484050;32;33491;-62
2023/10/27 04:11:06;;;;;;;6.57;3.55;;;;;;;24.13;45.27;97603.19;4484003;32;33912;-62
2023/10/27 04:13:34;;;;;;;6.87;3.28;;;;;;;24.13;45.25;97605.91;4484005;32;34211;-62
2023/10/27 04:16:02;;;;;;;5.68;3.78;;;;;;;24.12;45.34;97605.09;4483826;32;33367;-62
2023/10/27 04:18:30;;;;;;;13.48;3.58;;;;;;;24.13;45.40;97595.03;4483998;32;33847;-62
2023/10/27 04:20:58;;;;;;;8.18;4.05;;;;;;;24.12;45.36;97588.75;4482830;31;35419;-62
2023/10/27 04:23:25;;;;;;;5.82;3.83;;;;;;;24.14;45.32;97583.81;4483299;32;34064;-62
2023/10/27 04:25:53;;;;;;;6.25;3.40;;;;;;;24.13;45.33;97579.47;4482659;32;33317;-62
2023/10/27 04:28:21;;;;;;;10.25;3.70;;;;;;;24.14;45.27;97583.81;4483863;32;33888;-62
2023/10/27 04:30:53;;;;;;;7.03;4.10;;;;;;;24.14;45.29;97572.13;4483566;32;33833;-62
2023/10/27 04:33:21;;;;;;;5.93;3.75;;;;;;;24.14;45.23;97567.47;4483752;32;33832;-62
2023/10/27 04:35:49;;;;;;;7.82;3.65;;;;;;;24.13;45.29;97560.41;4469644;32;34362;-61
2023/10/27 04:38:18;;;;;;;12.10;3.67;;;;;;;24.14;45.28;97556.59;4483486;32;34641;-61
2023/10/27 04:40:46;;;;;;;12.68;3.90;;;;;;;24.13;45.31;97544.06;4482557;32;34055;-64
2023/10/27 04:43:13;;;;;;;10.15;4.00;;;;;;;24.19;45.43;97540.19;4482182;32;33753;-63
2023/10/27 04:45:41;;;;;;;7.32;3.47;;;;;;;24.15;45.28;97531.00;4483431;32;33673;-63
2023/10/27 04:48:09;;;;;;;6.53;3.47;;;;;;;24.14;44.66;97515.72;4483735;32;33961;-63
2023/10/27 04:50:36;;;;;;;6.00;3.37;;;;;;;24.12;44.52;97520.66;4482331;32;34692;-64
2023/10/27 04:53:04;;;;;;;8.45;3.50;;;;;;;24.12;44.44;97504.31;4483254;32;34139;-64
2023/10/27 04:55:31;;;;;;;5.37;3.00;;;;;;;24.12;44.49;97495.31;4483592;32;33708;-64
2023/10/27 04:57:59;;;;;;;6.75;3.42;;;;;;;24.09;44.47;97487.72;4483524;32;34562;-63
2023/10/27 05:00:27;;;;;;;7.65;3.45;;;;;;;24.09;44.59;97490.44;4481916;32;33925;-63
2023/10/27 05:02:55;;;;;;;6.53;3.50;;;;;;;24.08;44.95;97486.91;4483476;32;34407;-62
2023/10/27 05:05:23;;;;;;;6.05;3.42;;;;;;;24.08;44.91;97486.09;4483423;32;33324;-63
2023/10/27 05:07:50;;;;;;;7.70;3.00;;;;;;;24.10;44.85;97487.41;4483193;32;33421;-63
2023/10/27 05:10:18;;;;;;;11.02;3.10;;;;;;;24.10;44.82;97483.88;4483337;32;33914;-63
2023/10/27 05:12:46;;;;;;;6.55;3.25;;;;;;;24.10;44.85;97481.16;4483237;32;34172;-63
2023/10/27 05:15:13;;;;;;;11.55;4.00;;;;;;;24.11;44.88;97474.62;4483147;32;33675;-63
2023/10/27 05:17:42;;;;;;;9.68;3.53;;;;;;;24.12;44.92;97468.88;4483148;32;34686;-63
2023/10/27 05:20:10;;;;;;;9.65;2.80;;;;;;;24.13;45.04;97470.50;4483231;32;34068;-63
2023/10/27 05:22:38;;;;;;;6.50;3.12;;;;;;;24.14;45.13;97463.13;4483045;32;33881;-63
2023/10/27 05:25:06;;;;;;;8.00;2.92;;;;;;;24.14;45.26;97466.66;4483046;32;33874;-63
2023/10/27 05:27:34;;;;;;;7.80;3.20;;;;;;;24.15;45.38;97467.47;4482977;32;34611;-62
2023/10/27 05:30:02;;;;;;;12.85;3.05;;;;;;;24.16;45.51;97467.22;4483037;32;34516;-62
2023/10/27 05:32:32;;;;;;;8.60;3.80;;;;;;;24.16;45.60;97453.59;4481741;32;34199;-63
2023/10/27 05:35:00;;;;;;;6.00;2.80;;;;;;;24.18;45.63;97456.00;4483015;32;34269;-62
2023/10/27 05:37:28;;;;;;;8.38;3.20;;;;;;;24.21;45.77;97452.72;4485309;32;34843;-63
2023/10/27 05:39:56;;;;;;;7.70;3.40;;;;;;;24.21;45.90;97446.47;4485281;32;34263;-63
2023/10/27 05:42:23;;;;;;;5.97;3.03;;;;;;;24.22;45.97;97439.91;4484973;32;34735;-62
2023/10/27 05:44:51;;;;;;;8.20;2.70;;;;;;;24.22;46.06;97440.72;4485022;32;33640;-63
2023/10/27 05:47:19;;;;;;;6.03;3.37;;;;;;;24.23;46.13;97436.06;4485123;32;34613;-63
2023/10/27 05:49:47;;;;;;;7.25;2.92;;;;;;;24.23;46.14;97436.06;4483716;32;34733;-64
2023/10/27 05:52:15;;;;;;;6.35;3.03;;;;;;;24.26;46.17;97440.97;4485006;32;34213;-63
2023/10/27 05:54:44;;;;;;;8.18;3.35;;;;;;;24.26;46.19;97435.50;4485190;32;33636;-63
2023/10/27 05:57:14;;;;;;;7.78;2.95;;;;;;;24.28;46.22;97433.28;4484963;32;33837;-63
2023/10/27 05:59:42;;;;;;;9.13;3.05;;;;;;;24.28;46.28;97439.56;4485038;32;35095;-63
2023/10/27 06:02:10;;;;;;;11.12;3.40;;;;;;;24.29;46.26;97430.28;4484941;32;34874;-61
2023/10/27 06:04:43;;;;;;;4.65;2.70;;;;;;;24.29;46.35;97413.12;4484903;32;34773;-61
2023/10/27 06:07:15;;;;;;;8.88;3.55;;;;;;;24.30;46.07;97412.03;4485089;32;33810;-61
2023/10/27 06:09:43;;;;;;;6.95;3.40;;;;;;;24.29;45.81;97408.47;4483893;32;33919;-63
2023/10/27 06:12:11;;;;;;;6.62;3.12;;;;;;;24.29;45.69;97407.66;4484856;32;34060;-64
2023/10/27 06:14:44;;;;;;;7.95;4.00;;;;;;;24.28;45.57;97401.41;4484634;32;34290;-62
2023/10/27 06:17:12;;;;;;;9.52;3.03;;;;;;;24.28;45.59;97393.22;4484479;32;33959;-64
2023/10/27 06:19:40;;;;;;;6.10;2.50;;;;;;;24.28;45.56;97384.25;4484912;32;34859;-63
2023/10/27 06:22:09;;;;;;;9.75;3.08;;;;;;;24.27;45.49;97382.62;4485003;32;34616;-64
2023/10/27 06:24:37;;;;;;;7.07;3.37;;;;;;;24.26;45.49;97370.91;4484748;32;33478;-64
2023/10/27 06:27:05;;;;;;;7.70;3.00;;;;;;;24.26;45.42;97375.56;4484841;32;34255;-64
2023/10/27 06:29:34;;;;;;;5.95;2.95;;;;;;;24.25;45.40;97363.84;4484621;32;33990;-62
2023/10/27 06:32:03;;;;;;;6.60;2.87;;;;;;;24.24;45.38;97378.56;4484747;32;34196;-61
2023/10/27 06:34:30;;;;;;;6.05;2.85;;;;;;;24.23;45.37;97370.69;4479603;32;33604;-64
2023/10/27 06:36:59;;;;;;;7.70;3.20;;;;;;;24.23;45.33;97365.22;4484598;32;33927;-63
2023/10/27 06:39:29;;;;;;;7.40;2.83;;;;;;;24.21;45.29;97365.53;4484761;32;34718;-64
2023/10/27 06:41:56;;;;;;;6.12;3.08;;;;;;;24.20;45.22;97358.44;4484822;32;34791;-63
2023/10/27 06:44:24;;;;;;;6.57;2.67;;;;;;;24.19;45.21;97365.81;4483370;32;33545;-63
2023/10/27 06:46:53;;;;;;;5.85;3.25;;;;;;;24.18;45.19;97355.19;4483565;32;33624;-62
2023/10/27 06:49:20;;;;;;;7.70;3.17;;;;;;;24.17;45.20;97359.84;4483421;32;34832;-64
2023/10/27 06:51:49;;;;;;;5.87;2.70;;;;;;;24.17;45.19;97367.22;4484510;32;33955;-64
2023/10/27 06:54:16;;;;;;;7.15;3.08;;;;;;;24.15;45.15;97350.31;4484762;32;33582;-63
2023/10/27 06:56:44;;;;;;;11.07;3.83;;;;;;;24.15;45.09;97345.72;4484676;32;34609;-64
2023/10/27 06:59:11;;;;;;;7.53;3.00;;;;;;;24.15;45.06;97333.97;4484325;32;34042;-63
2023/10/27 07:01:39;;;;;;;7.62;2.80;;;;;;;24.14;45.01;97333.16;4484483;32;35400;-64
2023/10/27 07:04:08;;;;;;;5.72;2.70;;;;;;;24.13;44.99;97334.28;4484528;32;33784;-64
2023/10/27 07:06:35;;;;;;;5.37;2.75;;;;;;;24.12;45.02;97332.66;4484784;32;33829;-63
2023/10/27 07:09:03;;;;;;;9.55;3.00;;;;;;;24.13;45.04;97333.47;4484293;32;34014;-64
2023/10/27 07:11:31;;;;;;;4.93;2.50;;;;;;;24.12;44.98;97329.12;4484705;32;35043;-63
2023/10/27 07:13:58;;;;;;;6.15;2.45;;;;;;;24.11;44.99;97322.88;4484419;32;33290;-64
2023/10/27 07:16:29;;;;;;;5.57;2.90;;;;;;;24.11;44.93;97320.16;4484515;32;34566;-63
2023/10/27 07:18:57;;;;;;;6.15;2.83;;;;;;;24.11;44.96;97322.88;4484569;32;34057;-63
2023/10/27 07:21:24;;;;;;;8.65;3.30;;;;;;;24.10;44.93;97315.78;4484411;32;34774;-62
2023/10/27 07:23:52;;;;;;;9.77;3.35;;;;;;;24.09;44.91;97316.88;4484358;32;33439;-64
2023/10/27 07:26:20;;;;;;;5.65;2.42;;;;;;;24.09;44.86;97322.34;4483954;32;34532;-64
2023/10/27 07:28:47;;;;;;;5.78;2.70;;;;;;;24.09;44.75;97300.53;4484545;32;33827;-64
2023/10/27 07:31:15;;;;;;;5.93;2.40;;;;;;;24.08;44.80;97304.38;4484427;32;34233;-63
2023/10/27 07:33:43;;;;;;;6.40;2.65;;;;;;;24.07;44.63;97282.88;4484450;32;34390;-63
2023/10/27 07:36:11;;;;;;;5.03;2.58;;;;;;;24.08;44.57;97288.03;4484334;32;34621;-63
2023/10/27 07:38:39;;;;;;;4.60;2.50;;;;;;;24.07;44.65;97285.59;4484390;32;33659;-63
2023/10/27 07:41:06;;;;;;;5.70;2.40;;;;;;;24.06;44.55;97279.34;4484625;32;34141;-62
2023/10/27 07:43:34;;;;;;;5.80;2.28;;;;;;;24.06;44.57;97287.53;4484074;32;34357;-63
2023/10/27 07:46:01;;;;;;;5.72;2.78;;;;;;;24.06;44.58;97294.84;4484334;32;34846;-64
2023/10/27 07:48:29;;;;;;;5.07;2.28;;;;;;;24.05;44.61;97283.16;4484265;32;34825;-64
2023/10/27 07:50:57;;;;;;;4.43;2.35;;;;;;;24.05;44.48;97274.19;4481157;32;84052;-64
2023/10/27 07:53:26;;;;;;;4.75;2.40;;;;;;;24.06;44.42;97276.62;4484101;32;33858;-64
2023/10/27 07:55:54;;;;;;;4.20;2.40;;;;;;;24.04;44.46;97270.66;4484260;32;33860;-63
2023/10/27 07:58:22;;;;;;;7.50;2.53;;;;;;;24.04;44.50;97265.19;4483433;32;34697;-64
2023/10/27 08:00:53;;;;;;;4.75;2.17;;;;;;;24.03;44.42;97266.31;4483052;32;34266;-64
2023/10/27 08:03:21;;;;;;;5.65;2.67;;;;;;;24.04;44.39;97267.91;4484045;32;33663;-64
2023/10/27 08:05:50;;;;;;;3.90;2.22;;;;;;;24.03;44.47;97258.13;4484280;32;33389;-64
2023/10/27 08:08:17;;;;;;;4.70;2.53;;;;;;;24.03;44.46;97258.13;4484473;32;33868;-63
2023/10/27 08:10:46;;;;;;;5.37;2.22;;;;;;;24.03;44.46;97252.69;4483927;32;34763;-64
2023/10/27 08:13:20;;;;;;;8.77;2.53;;;;;;;24.04;44.51;97251.56;4484141;32;33220;-63
2023/10/27 08:15:49;;;;;;;3.78;2.53;;;;;;;24.03;44.43;97230.91;4483817;32;34586;-62
2023/10/27 08:18:16;;;;;;;3.55;2.00;;;;;;;24.04;44.39;97237.97;4483959;32;34030;-64
2023/10/27 08:20:44;;;;;;;3.90;2.00;;;;;;;24.03;44.41;97238.25;4483983;32;34088;-63
2023/10/27 08:23:12;;;;;;;6.47;2.58;;;;;;;24.03;44.38;97221.91;4483960;32;34387;-64
2023/10/27 08:25:39;;;;;;;4.40;2.67;;;;;;;24.03;44.38;97224.63;4483725;32;34546;-64
2023/10/27 08:28:08;;;;;;;5.60;2.42;;;;;;;24.03;44.41;97225.44;4483973;32;33923;-64
2023/10/27 08:30:36;;;;;;;3.80;1.92;;;;;;;24.01;44.38;97219.47;4482742;32;34196;-63
2023/10/27 08:33:03;;;;;;;4.40;2.40;;;;;;;24.02;44.40;97220.31;4483756;32;33517;-63
2023/10/27 08:35:31;;;;;;;5.37;2.53;;;;;;;24.02;44.41;97220.31;4484065;32;33906;-62
2023/10/27 08:37:59;;;;;;;5.93;2.28;;;;;;;24.01;44.58;97214.00;4483860;32;33832;-63
2023/10/27 08:40:27;;;;;;;4.70;2.15;;;;;;;24.01;44.38;97199.59;4483886;32;34144;-64
2023/10/27 08:42:56;;;;;;;5.12;2.67;;;;;;;24.00;44.50;97185.16;4483407;32;33659;-63
2023/10/27 08:45:24;;;;;;;5.03;2.65;;;;;;;24.00;44.57;97174.28;4482498;32;33972;-63
2023/10/27 08:47:53;;;;;;;6.95;2.60;;;;;;;24.01;44.50;97175.06;4482408;32;33736;-64
2023/10/27 08:50:21;;;;;;;5.95;2.87;;;;;;;24.01;44.58;97173.16;4469646;32;34568;-64
2023/10/27 08:52:50;;;;;;;4.93;2.20;;;;;;;24.01;44.61;97169.62;4483576;32;34417;-63
2023/10/27 08:55:20;;;;;;;3.87;2.37;;;;;;;24.00;44.62;97152.47;4483653;32;33907;-63
2023/10/27 08:57:47;;;;;;;4.28;2.20;;;;;;;24.01;44.60;97147.84;4483618;32;34765;-63
2023/10/27 09:00:16;;;;;;;5.03;2.45;;;;;;;24.00;44.56;97149.75;4482141;32;34981;-63
2023/10/27 09:02:43;;;;;;;4.45;2.05;;;;;;;24.00;44.55;97143.50;4483397;32;33402;-63
2023/10/27 09:05:11;;;;;;;5.37;2.37;;;;;;;24.00;44.49;97141.59;4483774;32;32858;-64
2023/10/27 09:07:39;;;;;;;4.78;2.12;;;;;;;23.99;44.48;97134.53;4483059;32;33924;-63
2023/10/27 09:10:08;;;;;;;5.53;2.50;;;;;;;23.99;44.59;97128.28;4483318;32;33637;-63
2023/10/27 09:12:39;;;;;;;4.57;2.28;;;;;;;23.98;44.53;97113.84;4485722;32;33581;-63
2023/10/27 09:15:08;;;;;;;5.22;2.47;;;;;;;23.99;44.48;97117.38;4485273;32;34624;-62
2023/10/27 09:17:51;;;;;;;5.00;2.53;;;;;;;23.98;44.46;97116.56;4485409;32;33515;-63
2023/10/27 09:20:23;;;;;;;4.18;2.20;;;;;;;24.00;44.52;97108.09;4485219;32;34006;-64
2023/10/27 09:22:57;;;;;;;5.28;2.67;;;;;;;23.98;44.60;97107.59;4484510;32;32932;-63
2023/10/27 09:25:31;;;;;;;5.40;2.40;;;;;;;23.98;44.48;97097.50;4485121;32;34598;-64
2023/10/27 09:28:01;;;;;;;4.03;2.05;;;;;;;23.97;44.53;97089.59;4484189;32;34367;-62
2023/10/27 09:30:30;;;;;;;;;;;;;;;23.97;44.53;97089.59;4484454;32;34814;-63
2023/10/27 09:33:12;;;;;;;7.85;2.75;;;;;;;24.06;44.34;97090.56;4485256;32;33701;-63
2023/10/27 09:35:41;;;;;;;4.60;2.28;;;;;;;24.01;44.52;97083.28;4484835;32;33804;-64
2023/10/27 09:38:08;;;;;;;5.60;2.55;;;;;;;23.96;44.65;97080.63;4483961;32;35161;-63
2023/10/27 09:40:37;;;;;;;4.50;2.53;;;;;;;23.95;44.56;97061.88;4485220;32;34142;-63
2023/10/27 09:43:20;;;;;;;4.75;1.90;;;;;;;23.95;44.47;97073.56;4484041;32;33147;-63
2023/10/27 09:45:55;;;;;;;5.18;2.60;;;;;;;23.97;44.48;97067.81;4484034;32;34002;-63
2023/10/27 09:48:24;;;;;;;3.45;2.12;;;;;;;23.96;44.50;97056.12;4482644;32;34036;-62
2023/10/27 09:51:02;;;;;;;4.97;2.37;;;;;;;23.94;44.54;97039.28;4484882;32;33874;-62
2023/10/27 09:53:30;;;;;;;3.62;1.98;;;;;;;23.96;44.55;97049.88;4485105;32;34415;-63
2023/10/27 09:55:58;;;;;;;6.50;2.22;;;;;;;23.96;44.42;97049.88;4484126;32;33575;-63
2023/10/27 09:58:26;;;;;;;3.80;2.10;;;;;;;23.94;44.50;97025.66;4484168;32;34046;-63
2023/10/27 10:00:56;;;;;;;3.78;2.00;;;;;;;23.95;44.56;97024.56;4484643;32;34074;-64
2023/10/27 10:03:27;;;;;;;5.12;2.35;;;;;;;23.95;44.46;97037.38;4483640;32;34276;-63
2023/10/27 10:06:21;;;;;;;4.25;2.28;;;;;;;23.96;44.36;97028.87;4471073;32;34766;-64
2023/10/27 10:09:19;;;;;;;5.62;2.15;;;;;;;23.98;44.31;97012.28;4484887;32;34407;-63
2023/10/27 10:11:46;;;;;;;4.57;2.45;;;;;;;23.96;44.36;97007.09;4484917;32;34457;-64
2023/10/27 10:14:36;;;;;;;4.80;2.50;;;;;;;23.93;44.45;97027.59;4485282;32;33722;-64
2023/10/27 10:17:08;;;;;;;3.25;1.98;;;;;;;23.95;44.45;97010.94;4485078;32;33826;-64
2023/10/27 10:19:52;;;;;;;4.25;2.45;;;;;;;23.94;44.45;97012.03;4484442;32;34744;-62
2023/10/27 10:22:38;;;;;;;3.90;2.22;;;;;;;23.95;44.49;97000.03;4470268;32;34727;-64
2023/10/27 10:25:14;;;;;;;3.70;1.98;;;;;;;23.95;44.47;97013.66;4484797;32;33118;-64
2023/10/27 10:28:06;;;;;;;5.65;2.28;;;;;;;23.92;44.48;97003.34;4484985;32;33915;-64
2023/10/27 10:30:39;;;;;;;4.70;2.20;;;;;;;23.95;44.38;96999.22;4484935;32;33755;-63
2023/10/27 10:33:16;;;;;;;4.90;1.95;;;;;;;23.91;44.50;96993.56;4471053;32;33917;-63
2023/10/27 10:35:44;;;;;;;4.40;2.22;;;;;;;23.92;44.51;96987.00;4484574;32;33344;-63
2023/10/27 10:38:24;;;;;;;3.85;2.25;;;;;;;23.92;44.52;96992.44;4470459;32;33820;-63
2023/10/27 10:40:55;;;;;;;5.85;2.45;;;;;;;23.93;44.51;96991.37;4484835;32;34094;-64
2023/10/27 10:43:24;;;;;;;4.55;2.17;;;;;;;23.91;44.49;96985.41;4484634;32;34187;-64
2023/10/27 10:46:03;;;;;;;3.70;1.87;;;;;;;23.91;44.55;96982.66;4484717;32;33301;-63
2023/10/27 10:48:31;;;;;;;3.97;1.90;;;;;;;23.93;44.41;96972.31;4483588;32;34555;-63
2023/10/27 10:51:16;;;;;;;4.62;1.85;;;;;;;23.91;44.46;96972.59;4483255;32;33607;-63
2023/10/27 10:53:53;;;;;;;3.87;2.00;;;;;;;23.92;44.37;96971.50;4484649;32;34900;-64
2023/10/27 10:56:22;;;;;;;3.47;2.05;;;;;;;23.92;44.51;96957.88;4483565;32;33522;-64
2023/10/27 10:58:49;;;;;;;4.90;2.10;;;;;;;23.91;44.53;96945.34;4484691;32;33952;-63
2023/10/27 11:01:18;;;;;;;4.70;2.35;;;;;;;23.91;44.49;96958.16;4484652;32;33761;-64
2023/10/27 11:03:47;;;;;;;4.72;2.35;;;;;;;23.91;44.40;96953.53;4483269;32;33828;-64
2023/10/27 11:06:18;;;;;;;4.78;2.35;;;;;;;23.91;44.47;96939.09;4483352;32;33363;-63
2023/10/27 11:08:46;;;;;;;3.85;1.90;;;;;;;23.91;44.46;96955.44;4484499;32;34175;-64
2023/10/27 11:11:16;;;;;;;3.40;1.90;;;;;;;23.91;44.37;96956.25;4484479;32;33964;-63
2023/10/27 11:13:44;;;;;;;4.03;1.98;;;;;;;23.91;44.39;96966.34;4484530;32;34408;-64
2023/10/27 11:16:21;;;;;;;3.50;2.03;;;;;;;23.91;44.36;96978.03;4484403;32;33798;-64
2023/10/27 11:18:51;;;;;;;3.53;1.85;;;;;;;23.91;44.33;96980.75;4484578;32;34048;-63
2023/10/27 11:21:22;;;;;;;;;;;;;;;23.91;44.30;97009.91;4483939;32;34088;-63
2023/10/27 11:23:49;;;;;;;3.53;1.90;;;;;;;24.00;43.97;97019.03;4483272;32;34743;-63
2023/10/27 11:26:19;;;;;;;3.85;2.15;;;;;;;23.92;44.17;97039.59;4484449;32;34607;-64
2023/10/27 11:28:47;;;;;;;3.37;2.00;;;;;;;23.90;44.29;97043.69;4483193;32;33585;-63
2023/10/27 11:31:26;;;;;;;4.05;2.10;;;;;;;23.91;44.19;97059.72;4484525;32;33702;-63
2023/10/27 11:34:07;;;;;;;3.37;2.00;;;;;;;23.91;44.30;97050.75;4482085;32;34823;-63
2023/10/27 11:36:35;;;;;;;3.58;1.90;;;;;;;23.91;44.33;97057.00;4483128;32;34402;-63
2023/10/27 11:39:16;;;;;;;4.07;2.12;;;;;;;23.89;44.37;97047.53;4483137;32;34092;-64
2023/10/27 11:41:46;;;;;;;3.08;1.90;;;;;;;23.91;44.43;97037.13;4483273;32;34765;-63
2023/10/27 11:44:13;;;;;;;4.20;2.17;;;;;;;23.89;44.39;97047.53;4483239;32;33693;-63